sensor_id;sensor_type;location;lat;lon;timestamp;temperature;humidity
7174;DHT22;3628;48.654;8.932;2024-02-26T00:01:40;5.00;99.90
7174;DHT22;3628;48.654;8.932;2024-02-26T00:04:05;5.00;99.90
7174;DHT22;3628;48.654;8.932;2024-02-26T00:06:31;5.00;99.90
7174;DHT22;3628;48.654;8.932;2024-02-26T00:08:58;5.00;99.90
7174;DHT22;3628;48.654;8.932;2024-02-26T00:11:23;5.10;99.90
7174;DHT22;3628;48.654;8.932;2024-02-26T00:13:49;5.10;99.90
7174;DHT22;3628;48.654;8.932;2024-02-26T00:16:15;5.10;99.90
7174;DHT22;3628;48.654;8.932;2024-02-26T00:18:40;5.20;99.90
7174;DHT22;3628;48.654;8.932;2024-02-26T00:21:06;5.20;99.90
7174;DHT22;3628;48.654;8.932;2024-02-26T00:23:31;5.20;99.90
7174;DHT22;3628;48.654;8.932;2024-02-26T00:25:57;5.20;99.90
7174;DHT22;3628;48.654;8.932;2024-02-26T00:28:23;5.30;99.90
7174;DHT22;3628;48.654;8.932;2024-02-26T00:30:50;5.30;99.90
7174;DHT22;3628;48.654;8.932;2024-02-26T00:33:17;5.30;99.90
7174;DHT22;3628;48.654;8.932;2024-02-26T00:35:42;5.30;99.90
7174;DHT22;3628;48.654;8.932;2024-02-26T00:38:08;5.30;99.90
7174;DHT22;3628;48.654;8.932;2024-02-26T00:40:33;5.30;99.90
7174;DHT22;3628;48.654;8.932;2024-02-26T00:42:59;5.30;99.90
7174;DHT22;3628;48.654;8.932;2024-02-26T00:45:25;5.30;99.90
7174;DHT22;3628;48.654;8.932;2024-02-26T00:47:50;5.20;99.90
7174;DHT22;3628;48.654;8.932;2024-02-26T00:50:16;5.00;99.90
7174;DHT22;3628;48.654;8.932;2024-02-26T00:52:42;5.00;99.90
7174;DHT22;3628;48.654;8.932;2024-02-26T00:55:08;5.00;99.90
7174;DHT22;3628;48.654;8.932;2024-02-26T00:57:33;5.00;99.90
7174;DHT22;3628;48.654;8.932;2024-02-26T00:59:59;5.10;99.90
7174;DHT22;3628;48.654;8.932;2024-02-26T01:02:26;5.10;99.90
7174;DHT22;3628;48.654;8.932;2024-02-26T01:04:51;5.10;99.90
7174;DHT22;3628;48.654;8.932;2024-02-26T01:07:19;5.20;99.90
7174;DHT22;3628;48.654;8.932;2024-02-26T01:09:44;5.20;99.90
7174;DHT22;3628;48.654;8.932;2024-02-26T01:12:10;5.20;99.90
7174;DHT22;3628;48.654;8.932;2024-02-26T01:14:35;5.10;99.90
7174;DHT22;3628;48.654;8.932;2024-02-26T01:17:01;5.00;99.90
7174;DHT22;3628;48.654;8.932;2024-02-26T01:19:27;5.10;99.90
7174;DHT22;3628;48.654;8.932;2024-02-26T01:21:53;5.00;99.90
7174;DHT22;3628;48.654;8.932;2024-02-26T01:24:18;5.00;99.90
7174;DHT22;3628;48.654;8.932;2024-02-26T01:26:44;5.10;99.90
7174;DHT22;3628;48.654;8.932;2024-02-26T01:29:09;5.10;99.90
7174;DHT22;3628;48.654;8.932;2024-02-26T01:31:35;5.20;99.90
7174;DHT22;3628;48.654;8.932;2024-02-26T01:34:01;5.20;99.90
7174;DHT22;3628;48.654;8.932;2024-02-26T01:36:27;5.30;99.90
7174;DHT22;3628;48.654;8.932;2024-02-26T01:38:52;5.30;99.90
7174;DHT22;3628;48.654;8.932;2024-02-26T01:41:18;5.30;99.90
7174;DHT22;3628;48.654;8.932;2024-02-26T01:43:43;5.40;99.90
7174;DHT22;3628;48.654;8.932;2024-02-26T01:46:13;5.30;99.90
7174;DHT22;3628;48.654;8.932;2024-02-26T01:48:42;5.40;99.90
7174;DHT22;3628;48.654;8.932;2024-02-26T01:51:08;5.40;99.90
7174;DHT22;3628;48.654;8.932;2024-02-26T01:53:34;5.40;99.90
7174;DHT22;3628;48.654;8.932;2024-02-26T01:56:00;5.50;99.90
7174;DHT22;3628;48.654;8.932;2024-02-26T01:58:25;5.50;99.90
7174;DHT22;3628;48.654;8.932;2024-02-26T02:00:51;5.50;99.90
7174;DHT22;3628;48.654;8.932;2024-02-26T02:03:17;5.50;99.90
7174;DHT22;3628;48.654;8.932;2024-02-26T02:05:43;5.40;99.90
7174;DHT22;3628;48.654;8.932;2024-02-26T02:08:10;5.50;99.90
7174;DHT22;3628;48.654;8.932;2024-02-26T02:10:38;5.50;99.90
7174;DHT22;3628;48.654;8.932;2024-02-26T02:13:03;5.50;99.90
7174;DHT22;3628;48.654;8.932;2024-02-26T02:15:29;5.50;99.90
7174;DHT22;3628;48.654;8.932;2024-02-26T02:17:55;5.50;99.90
7174;DHT22;3628;48.654;8.932;2024-02-26T02:20:26;5.60;99.90
7174;DHT22;3628;48.654;8.932;2024-02-26T02:22:53;5.70;99.90
7174;DHT22;3628;48.654;8.932;2024-02-26T02:25:18;5.70;99.90
7174;DHT22;3628;48.654;8.932;2024-02-26T02:27:44;5.70;99.90
7174;DHT22;3628;48.654;8.932;2024-02-26T02:30:10;5.80;99.90
7174;DHT22;3628;48.654;8.932;2024-02-26T02:32:38;5.90;99.90
7174;DHT22;3628;48.654;8.932;2024-02-26T02:35:05;6.00;99.90
7174;DHT22;3628;48.654;8.932;2024-02-26T02:37:30;6.00;99.90
7174;DHT22;3628;48.654;8.932;2024-02-26T02:39:56;6.10;99.90
7174;DHT22;3628;48.654;8.932;2024-02-26T02:42:23;6.10;99.90
7174;DHT22;3628;48.654;8.932;2024-02-26T02:44:49;6.00;99.90
7174;DHT22;3628;48.654;8.932;2024-02-26T02:47:14;6.10;99.90
7174;DHT22;3628;48.654;8.932;2024-02-26T02:49:40;6.10;99.90
7174;DHT22;3628;48.654;8.932;2024-02-26T02:52:05;6.10;99.90
7174;DHT22;3628;48.654;8.932;2024-02-26T02:54:31;6.10;99.90
7174;DHT22;3628;48.654;8.932;2024-02-26T02:56:57;6.10;99.90
7174;DHT22;3628;48.654;8.932;2024-02-26T02:59:22;6.10;99.90
7174;DHT22;3628;48.654;8.932;2024-02-26T03:01:48;6.00;99.90
7174;DHT22;3628;48.654;8.932;2024-02-26T03:04:13;6.00;99.90
7174;DHT22;3628;48.654;8.932;2024-02-26T03:06:39;6.00;99.90
7174;DHT22;3628;48.654;8.932;2024-02-26T03:09:04;6.00;99.90
7174;DHT22;3628;48.654;8.932;2024-02-26T03:11:30;6.10;99.90
7174;DHT22;3628;48.654;8.932;2024-02-26T03:13:55;6.20;99.90
7174;DHT22;3628;48.654;8.932;2024-02-26T03:16:21;6.30;99.90
7174;DHT22;3628;48.654;8.932;2024-02-26T03:18:47;6.30;99.90
7174;DHT22;3628;48.654;8.932;2024-02-26T03:21:12;6.40;99.90
7174;DHT22;3628;48.654;8.932;2024-02-26T03:23:38;6.40;99.90
7174;DHT22;3628;48.654;8.932;2024-02-26T03:26:04;6.50;99.90
7174;DHT22;3628;48.654;8.932;2024-02-26T03:28:30;6.50;99.90
7174;DHT22;3628;48.654;8.932;2024-02-26T03:30:56;6.50;99.90
7174;DHT22;3628;48.654;8.932;2024-02-26T03:33:21;6.50;99.90
7174;DHT22;3628;48.654;8.932;2024-02-26T03:35:47;6.50;99.90
7174;DHT22;3628;48.654;8.932;2024-02-26T03:38:13;6.50;99.90
7174;DHT22;3628;48.654;8.932;2024-02-26T03:40:38;6.60;99.90
7174;DHT22;3628;48.654;8.932;2024-02-26T03:43:04;6.60;99.90
7174;DHT22;3628;48.654;8.932;2024-02-26T03:45:32;6.60;99.90
7174;DHT22;3628;48.654;8.932;2024-02-26T03:47:58;6.60;99.90
7174;DHT22;3628;48.654;8.932;2024-02-26T03:50:23;6.60;99.90
7174;DHT22;3628;48.654;8.932;2024-02-26T03:52:49;6.50;99.90
7174;DHT22;3628;48.654;8.932;2024-02-26T03:55:14;6.60;99.90
7174;DHT22;3628;48.654;8.932;2024-02-26T03:57:40;6.50;99.90
7174;DHT22;3628;48.654;8.932;2024-02-26T04:00:06;6.50;99.90
7174;DHT22;3628;48.654;8.932;2024-02-26T04:02:32;6.50;99.90
7174;DHT22;3628;48.654;8.932;2024-02-26T04:04:57;6.40;99.90
7174;DHT22;3628;48.654;8.932;2024-02-26T04:07:24;6.40;99.90
7174;DHT22;3628;48.654;8.932;2024-02-26T04:09:50;6.40;99.90
7174;DHT22;3628;48.654;8.932;2024-02-26T04:12:15;6.40;99.90
7174;DHT22;3628;48.654;8.932;2024-02-26T04:14:41;6.40;99.90
7174;DHT22;3628;48.654;8.932;2024-02-26T04:17:06;6.40;99.90
7174;DHT22;3628;48.654;8.932;2024-02-26T04:19:32;6.50;99.90
7174;DHT22;3628;48.654;8.932;2024-02-26T04:21:59;6.50;99.90
7174;DHT22;3628;48.654;8.932;2024-02-26T04:24:25;6.40;99.90
7174;DHT22;3628;48.654;8.932;2024-02-26T04:26:50;6.40;99.90
7174;DHT22;3628;48.654;8.932;2024-02-26T04:29:16;6.30;99.90
7174;DHT22;3628;48.654;8.932;2024-02-26T04:31:41;6.30;99.90
7174;DHT22;3628;48.654;8.932;2024-02-26T04:34:08;6.30;99.90
7174;DHT22;3628;48.654;8.932;2024-02-26T04:36:34;6.30;99.90
7174;DHT22;3628;48.654;8.932;2024-02-26T04:38:59;6.30;99.90
7174;DHT22;3628;48.654;8.932;2024-02-26T04:41:25;6.30;99.90
7174;DHT22;3628;48.654;8.932;2024-02-26T04:43:50;6.30;99.90
7174;DHT22;3628;48.654;8.932;2024-02-26T04:46:16;6.30;99.90
7174;DHT22;3628;48.654;8.932;2024-02-26T04:48:41;6.40;99.90
7174;DHT22;3628;48.654;8.932;2024-02-26T04:51:07;6.40;99.90
7174;DHT22;3628;48.654;8.932;2024-02-26T04:53:33;6.40;99.90
7174;DHT22;3628;48.654;8.932;2024-02-26T04:55:58;6.40;99.90
7174;DHT22;3628;48.654;8.932;2024-02-26T04:58:24;6.40;99.90
7174;DHT22;3628;48.654;8.932;2024-02-26T05:00:49;6.40;99.90
7174;DHT22;3628;48.654;8.932;2024-02-26T05:03:15;6.40;99.90
7174;DHT22;3628;48.654;8.932;2024-02-26T05:05:44;6.40;99.90
7174;DHT22;3628;48.654;8.932;2024-02-26T05:08:10;6.40;99.90
7174;DHT22;3628;48.654;8.932;2024-02-26T05:10:37;6.40;99.90
7174;DHT22;3628;48.654;8.932;2024-02-26T05:13:06;6.40;99.90
7174;DHT22;3628;48.654;8.932;2024-02-26T05:15:32;6.40;99.90
7174;DHT22;3628;48.654;8.932;2024-02-26T05:17:57;6.40;99.90
7174;DHT22;3628;48.654;8.932;2024-02-26T05:20:23;6.40;99.90
7174;DHT22;3628;48.654;8.932;2024-02-26T05:22:49;6.30;99.90
7174;DHT22;3628;48.654;8.932;2024-02-26T05:25:15;6.30;99.90
7174;DHT22;3628;48.654;8.932;2024-02-26T05:27:42;6.30;99.90
7174;DHT22;3628;48.654;8.932;2024-02-26T05:30:09;6.30;99.90
7174;DHT22;3628;48.654;8.932;2024-02-26T05:32:35;6.30;99.90
7174;DHT22;3628;48.654;8.932;2024-02-26T05:35:00;6.30;99.90
7174;DHT22;3628;48.654;8.932;2024-02-26T05:37:26;6.30;99.90
7174;DHT22;3628;48.654;8.932;2024-02-26T05:39:52;6.30;99.90
7174;DHT22;3628;48.654;8.932;2024-02-26T05:42:18;6.30;99.90
7174;DHT22;3628;48.654;8.932;2024-02-26T05:44:43;6.30;99.90
7174;DHT22;3628;48.654;8.932;2024-02-26T05:47:09;6.30;99.90
7174;DHT22;3628;48.654;8.932;2024-02-26T05:49:35;6.40;99.90
7174;DHT22;3628;48.654;8.932;2024-02-26T05:52:00;6.40;99.90
7174;DHT22;3628;48.654;8.932;2024-02-26T05:54:26;6.30;99.90
7174;DHT22;3628;48.654;8.932;2024-02-26T05:56:51;6.30;99.90
7174;DHT22;3628;48.654;8.932;2024-02-26T05:59:17;6.30;99.90
7174;DHT22;3628;48.654;8.932;2024-02-26T06:01:42;6.30;99.90
7174;DHT22;3628;48.654;8.932;2024-02-26T06:04:08;6.30;99.90
7174;DHT22;3628;48.654;8.932;2024-02-26T06:06:33;6.30;99.90
7174;DHT22;3628;48.654;8.932;2024-02-26T06:08:59;6.30;99.90
7174;DHT22;3628;48.654;8.932;2024-02-26T06:11:24;6.30;99.90
7174;DHT22;3628;48.654;8.932;2024-02-26T06:13:50;6.30;99.90
7174;DHT22;3628;48.654;8.932;2024-02-26T06:16:16;6.30;99.90
7174;DHT22;3628;48.654;8.932;2024-02-26T06:18:41;6.30;99.90
7174;DHT22;3628;48.654;8.932;2024-02-26T06:21:10;6.30;99.90
7174;DHT22;3628;48.654;8.932;2024-02-26T06:23:37;6.20;99.90
7174;DHT22;3628;48.654;8.932;2024-02-26T06:26:02;6.20;99.90
7174;DHT22;3628;48.654;8.932;2024-02-26T06:28:28;6.20;99.90
7174;DHT22;3628;48.654;8.932;2024-02-26T06:30:56;6.20;99.90
7174;DHT22;3628;48.654;8.932;2024-02-26T06:33:21;6.20;99.90
7174;DHT22;3628;48.654;8.932;2024-02-26T06:35:47;6.20;99.90
7174;DHT22;3628;48.654;8.932;2024-02-26T06:38:12;6.20;99.90
7174;DHT22;3628;48.654;8.932;2024-02-26T06:40:39;6.20;99.90
7174;DHT22;3628;48.654;8.932;2024-02-26T06:43:04;6.20;99.90
7174;DHT22;3628;48.654;8.932;2024-02-26T06:45:30;6.20;99.90
7174;DHT22;3628;48.654;8.932;2024-02-26T06:47:56;6.20;99.90
7174;DHT22;3628;48.654;8.932;2024-02-26T06:50:22;6.30;99.90
7174;DHT22;3628;48.654;8.932;2024-02-26T06:52:47;6.30;99.90
7174;DHT22;3628;48.654;8.932;2024-02-26T06:55:13;6.30;99.90
7174;DHT22;3628;48.654;8.932;2024-02-26T06:57:39;6.30;99.90
7174;DHT22;3628;48.654;8.932;2024-02-26T07:00:05;6.40;99.90
7174;DHT22;3628;48.654;8.932;2024-02-26T07:02:31;6.50;99.90
7174;DHT22;3628;48.654;8.932;2024-02-26T07:04:57;6.50;99.90
7174;DHT22;3628;48.654;8.932;2024-02-26T07:07:24;6.60;99.90
7174;DHT22;3628;48.654;8.932;2024-02-26T07:09:49;6.60;99.90
7174;DHT22;3628;48.654;8.932;2024-02-26T07:12:15;6.70;99.90
7174;DHT22;3628;48.654;8.932;2024-02-26T07:14:41;6.80;99.90
7174;DHT22;3628;48.654;8.932;2024-02-26T07:17:07;6.80;99.90
7174;DHT22;3628;48.654;8.932;2024-02-26T07:19:34;6.90;99.90
7174;DHT22;3628;48.654;8.932;2024-02-26T07:21:59;6.90;99.90
7174;DHT22;3628;48.654;8.932;2024-02-26T07:24:27;6.90;99.90
7174;DHT22;3628;48.654;8.932;2024-02-26T07:26:53;7.00;99.90
7174;DHT22;3628;48.654;8.932;2024-02-26T07:29:20;7.00;99.90
7174;DHT22;3628;48.654;8.932;2024-02-26T07:31:46;7.10;99.90
7174;DHT22;3628;48.654;8.932;2024-02-26T07:34:12;7.10;99.90
7174;DHT22;3628;48.654;8.932;2024-02-26T07:36:37;7.20;99.90
7174;DHT22;3628;48.654;8.932;2024-02-26T07:39:03;7.20;99.90
7174;DHT22;3628;48.654;8.932;2024-02-26T07:41:29;7.30;99.90
7174;DHT22;3628;48.654;8.932;2024-02-26T07:43:54;7.40;99.90
7174;DHT22;3628;48.654;8.932;2024-02-26T07:46:20;7.40;99.90
7174;DHT22;3628;48.654;8.932;2024-02-26T07:48:45;7.50;99.90
7174;DHT22;3628;48.654;8.932;2024-02-26T07:51:14;7.50;99.90
7174;DHT22;3628;48.654;8.932;2024-02-26T07:53:40;7.60;99.90
7174;DHT22;3628;48.654;8.932;2024-02-26T07:56:05;7.70;99.90
7174;DHT22;3628;48.654;8.932;2024-02-26T07:58:32;7.70;99.90
7174;DHT22;3628;48.654;8.932;2024-02-26T08:00:58;7.70;99.90
7174;DHT22;3628;48.654;8.932;2024-02-26T08:03:24;7.70;99.90
7174;DHT22;3628;48.654;8.932;2024-02-26T08:05:50;7.80;99.90
7174;DHT22;3628;48.654;8.932;2024-02-26T08:08:16;7.90;99.90
7174;DHT22;3628;48.654;8.932;2024-02-26T08:10:41;8.00;99.90
7174;DHT22;3628;48.654;8.932;2024-02-26T08:13:07;8.00;99.90
7174;DHT22;3628;48.654;8.932;2024-02-26T08:15:33;8.10;99.90
7174;DHT22;3628;48.654;8.932;2024-02-26T08:18:00;8.20;99.90
7174;DHT22;3628;48.654;8.932;2024-02-26T08:20:28;8.30;99.90
7174;DHT22;3628;48.654;8.932;2024-02-26T08:22:53;8.30;99.90
7174;DHT22;3628;48.654;8.932;2024-02-26T08:25:19;8.40;99.90
7174;DHT22;3628;48.654;8.932;2024-02-26T08:27:45;8.50;99.90
7174;DHT22;3628;48.654;8.932;2024-02-26T08:30:11;8.70;99.90
7174;DHT22;3628;48.654;8.932;2024-02-26T08:32:38;8.70;99.90
7174;DHT22;3628;48.654;8.932;2024-02-26T08:35:04;8.70;99.90
7174;DHT22;3628;48.654;8.932;2024-02-26T08:37:30;8.70;99.90
7174;DHT22;3628;48.654;8.932;2024-02-26T08:39:55;8.70;99.90
7174;DHT22;3628;48.654;8.932;2024-02-26T08:42:21;8.70;99.90
7174;DHT22;3628;48.654;8.932;2024-02-26T08:44:49;8.70;99.90
7174;DHT22;3628;48.654;8.932;2024-02-26T08:47:15;8.70;99.90
7174;DHT22;3628;48.654;8.932;2024-02-26T08:49:46;8.80;99.90
7174;DHT22;3628;48.654;8.932;2024-02-26T08:52:12;8.80;99.90
7174;DHT22;3628;48.654;8.932;2024-02-26T08:54:39;8.80;99.90
7174;DHT22;3628;48.654;8.932;2024-02-26T08:57:05;8.90;99.90
7174;DHT22;3628;48.654;8.932;2024-02-26T08:59:31;8.90;99.90
7174;DHT22;3628;48.654;8.932;2024-02-26T09:01:56;8.90;99.90
7174;DHT22;3628;48.654;8.932;2024-02-26T09:04:22;8.90;99.90
7174;DHT22;3628;48.654;8.932;2024-02-26T09:06:48;9.00;99.90
7174;DHT22;3628;48.654;8.932;2024-02-26T09:09:14;9.00;99.90
7174;DHT22;3628;48.654;8.932;2024-02-26T09:11:40;9.00;99.90
7174;DHT22;3628;48.654;8.932;2024-02-26T09:14:05;9.00;99.90
7174;DHT22;3628;48.654;8.932;2024-02-26T09:16:31;9.00;99.90
7174;DHT22;3628;48.654;8.932;2024-02-26T09:18:57;9.10;99.90
7174;DHT22;3628;48.654;8.932;2024-02-26T09:21:23;9.20;99.90
7174;DHT22;3628;48.654;8.932;2024-02-26T09:23:50;9.30;99.90
7174;DHT22;3628;48.654;8.932;2024-02-26T09:26:16;9.30;99.90
7174;DHT22;3628;48.654;8.932;2024-02-26T09:28:42;9.40;99.90
7174;DHT22;3628;48.654;8.932;2024-02-26T09:31:08;9.50;99.90
7174;DHT22;3628;48.654;8.932;2024-02-26T09:33:34;9.60;99.90
7174;DHT22;3628;48.654;8.932;2024-02-26T09:35:59;9.60;99.90
7174;DHT22;3628;48.654;8.932;2024-02-26T09:38:28;9.80;99.90
7174;DHT22;3628;48.654;8.932;2024-02-26T09:40:59;9.80;99.90
7174;DHT22;3628;48.654;8.932;2024-02-26T09:43:28;9.80;99.90
7174;DHT22;3628;48.654;8.932;2024-02-26T09:45:58;9.80;99.90
7174;DHT22;3628;48.654;8.932;2024-02-26T09:48:24;10.00;99.90
7174;DHT22;3628;48.654;8.932;2024-02-26T09:50:50;10.20;99.90
7174;DHT22;3628;48.654;8.932;2024-02-26T09:53:17;10.40;99.90
7174;DHT22;3628;48.654;8.932;2024-02-26T09:55:43;10.60;99.90
7174;DHT22;3628;48.654;8.932;2024-02-26T09:58:10;10.90;99.90
7174;DHT22;3628;48.654;8.932;2024-02-26T10:00:39;11.10;99.90
7174;DHT22;3628;48.654;8.932;2024-02-26T10:03:09;11.30;99.90
7174;DHT22;3628;48.654;8.932;2024-02-26T10:05:39;11.50;99.90
7174;DHT22;3628;48.654;8.932;2024-02-26T10:08:06;11.70;99.90
7174;DHT22;3628;48.654;8.932;2024-02-26T10:10:33;11.90;99.90
7174;DHT22;3628;48.654;8.932;2024-02-26T10:13:00;12.00;99.90
7174;DHT22;3628;48.654;8.932;2024-02-26T10:15:26;12.10;99.90
7174;DHT22;3628;48.654;8.932;2024-02-26T10:17:52;12.20;99.90
7174;DHT22;3628;48.654;8.932;2024-02-26T10:20:19;12.40;99.90
7174;DHT22;3628;48.654;8.932;2024-02-26T10:22:47;12.60;99.90
7174;DHT22;3628;48.654;8.932;2024-02-26T10:25:13;12.70;99.90
7174;DHT22;3628;48.654;8.932;2024-02-26T10:27:42;12.70;99.90
7174;DHT22;3628;48.654;8.932;2024-02-26T10:30:20;12.80;99.90
7174;DHT22;3628;48.654;8.932;2024-02-26T10:32:49;13.00;99.90
7174;DHT22;3628;48.654;8.932;2024-02-26T10:35:16;13.10;99.90
7174;DHT22;3628;48.654;8.932;2024-02-26T10:37:43;13.20;99.90
7174;DHT22;3628;48.654;8.932;2024-02-26T10:40:15;13.20;99.90
7174;DHT22;3628;48.654;8.932;2024-02-26T10:42:42;13.30;99.90
7174;DHT22;3628;48.654;8.932;2024-02-26T10:45:08;13.50;99.90
7174;DHT22;3628;48.654;8.932;2024-02-26T10:47:37;13.50;99.90
7174;DHT22;3628;48.654;8.932;2024-02-26T10:50:04;13.60;99.90
7174;DHT22;3628;48.654;8.932;2024-02-26T10:52:34;13.70;99.90
7174;DHT22;3628;48.654;8.932;2024-02-26T10:55:01;13.80;99.90
7174;DHT22;3628;48.654;8.932;2024-02-26T10:57:33;13.80;99.90
7174;DHT22;3628;48.654;8.932;2024-02-26T11:00:02;13.60;99.90
7174;DHT22;3628;48.654;8.932;2024-02-26T11:02:32;13.60;99.90
7174;DHT22;3628;48.654;8.932;2024-02-26T11:04:58;13.60;99.90
7174;DHT22;3628;48.654;8.932;2024-02-26T11:07:25;13.60;99.90
7174;DHT22;3628;48.654;8.932;2024-02-26T11:09:51;13.80;99.90
7174;DHT22;3628;48.654;8.932;2024-02-26T11:12:18;14.00;99.90
7174;DHT22;3628;48.654;8.932;2024-02-26T11:14:46;14.10;99.90
7174;DHT22;3628;48.654;8.932;2024-02-26T11:17:13;14.20;99.90
7174;DHT22;3628;48.654;8.932;2024-02-26T11:19:40;14.40;99.90
7174;DHT22;3628;48.654;8.932;2024-02-26T11:22:07;14.40;99.90
7174;DHT22;3628;48.654;8.932;2024-02-26T11:24:33;14.50;99.90
7174;DHT22;3628;48.654;8.932;2024-02-26T11:27:01;14.50;99.90
7174;DHT22;3628;48.654;8.932;2024-02-26T11:29:33;14.50;99.90
7174;DHT22;3628;48.654;8.932;2024-02-26T11:32:00;14.50;99.90
7174;DHT22;3628;48.654;8.932;2024-02-26T11:34:26;14.40;99.90
7174;DHT22;3628;48.654;8.932;2024-02-26T11:36:52;14.50;99.90
7174;DHT22;3628;48.654;8.932;2024-02-26T11:39:18;14.50;99.90
7174;DHT22;3628;48.654;8.932;2024-02-26T11:41:45;14.60;99.90
7174;DHT22;3628;48.654;8.932;2024-02-26T11:44:10;14.80;98.80
7174;DHT22;3628;48.654;8.932;2024-02-26T11:46:40;14.70;97.40
7174;DHT22;3628;48.654;8.932;2024-02-26T11:51:52;14.50;96.90
7174;DHT22;3628;48.654;8.932;2024-02-26T11:57:04;14.40;98.50
7174;DHT22;3628;48.654;8.932;2024-02-26T11:59:44;14.20;98.30
7174;DHT22;3628;48.654;8.932;2024-02-26T12:02:11;14.20;98.10
7174;DHT22;3628;48.654;8.932;2024-02-26T12:04:38;14.10;98.50
7174;DHT22;3628;48.654;8.932;2024-02-26T12:07:04;14.00;97.80
7174;DHT22;3628;48.654;8.932;2024-02-26T12:09:41;13.90;97.50
7174;DHT22;3628;48.654;8.932;2024-02-26T12:12:08;13.70;97.00
7174;DHT22;3628;48.654;8.932;2024-02-26T12:14:38;13.70;97.30
7174;DHT22;3628;48.654;8.932;2024-02-26T12:17:04;13.70;97.10
7174;DHT22;3628;48.654;8.932;2024-02-26T12:19:34;13.60;97.30
7174;DHT22;3628;48.654;8.932;2024-02-26T12:22:00;13.70;97.60
7174;DHT22;3628;48.654;8.932;2024-02-26T12:24:26;13.70;97.80
7174;DHT22;3628;48.654;8.932;2024-02-26T12:26:51;13.70;98.10
7174;DHT22;3628;48.654;8.932;2024-02-26T12:29:17;13.80;98.00
7174;DHT22;3628;48.654;8.932;2024-02-26T12:31:43;14.00;97.80
7174;DHT22;3628;48.654;8.932;2024-02-26T12:34:09;14.10;97.50
7174;DHT22;3628;48.654;8.932;2024-02-26T12:36:35;14.20;97.10
7174;DHT22;3628;48.654;8.932;2024-02-26T12:39:02;14.10;95.00
7174;DHT22;3628;48.654;8.932;2024-02-26T12:41:28;14.20;96.10
7174;DHT22;3628;48.654;8.932;2024-02-26T12:43:55;14.30;96.90
7174;DHT22;3628;48.654;8.932;2024-02-26T12:46:21;14.50;97.40
7174;DHT22;3628;48.654;8.932;2024-02-26T12:48:47;14.50;96.20
7174;DHT22;3628;48.654;8.932;2024-02-26T12:51:14;14.50;93.60
7174;DHT22;3628;48.654;8.932;2024-02-26T12:53:41;14.50;94.10
7174;DHT22;3628;48.654;8.932;2024-02-26T12:56:10;14.60;95.40
7174;DHT22;3628;48.654;8.932;2024-02-26T12:58:39;14.60;93.90
7174;DHT22;3628;48.654;8.932;2024-02-26T13:01:05;14.70;93.10
7174;DHT22;3628;48.654;8.932;2024-02-26T13:03:32;14.80;94.20
7174;DHT22;3628;48.654;8.932;2024-02-26T13:05:59;15.00;94.20
7174;DHT22;3628;48.654;8.932;2024-02-26T13:08:25;15.00;93.30
7174;DHT22;3628;48.654;8.932;2024-02-26T13:10:50;14.90;91.40
7174;DHT22;3628;48.654;8.932;2024-02-26T13:13:18;15.00;91.40
7174;DHT22;3628;48.654;8.932;2024-02-26T13:15:46;15.20;92.20
7174;DHT22;3628;48.654;8.932;2024-02-26T13:18:14;15.10;90.50
7174;DHT22;3628;48.654;8.932;2024-02-26T13:20:40;15.00;90.60
7174;DHT22;3628;48.654;8.932;2024-02-26T13:23:07;14.80;90.40
7174;DHT22;3628;48.654;8.932;2024-02-26T13:25:34;14.90;90.60
7174;DHT22;3628;48.654;8.932;2024-02-26T13:30:33;15.10;91.20
7174;DHT22;3628;48.654;8.932;2024-02-26T13:33:10;15.10;90.00
7174;DHT22;3628;48.654;8.932;2024-02-26T13:35:36;15.10;90.40
7174;DHT22;3628;48.654;8.932;2024-02-26T13:38:04;15.10;91.00
7174;DHT22;3628;48.654;8.932;2024-02-26T13:40:30;15.20;92.00
7174;DHT22;3628;48.654;8.932;2024-02-26T13:42:56;15.20;92.00
7174;DHT22;3628;48.654;8.932;2024-02-26T13:45:21;15.00;90.90
7174;DHT22;3628;48.654;8.932;2024-02-26T13:47:47;15.10;91.70
7174;DHT22;3628;48.654;8.932;2024-02-26T13:50:12;15.00;91.80
7174;DHT22;3628;48.654;8.932;2024-02-26T13:52:38;15.10;91.90
7174;DHT22;3628;48.654;8.932;2024-02-26T13:55:04;15.20;92.80
7174;DHT22;3628;48.654;8.932;2024-02-26T13:57:30;15.30;92.90
7174;DHT22;3628;48.654;8.932;2024-02-26T13:59:55;15.30;91.90
7174;DHT22;3628;48.654;8.932;2024-02-26T14:02:21;15.50;91.40
7174;DHT22;3628;48.654;8.932;2024-02-26T14:04:47;15.50;91.00
7174;DHT22;3628;48.654;8.932;2024-02-26T14:07:13;15.60;90.10
7174;DHT22;3628;48.654;8.932;2024-02-26T14:09:39;15.70;90.90
7174;DHT22;3628;48.654;8.932;2024-02-26T14:12:05;15.70;90.10
7174;DHT22;3628;48.654;8.932;2024-02-26T14:14:30;15.70;89.60
7174;DHT22;3628;48.654;8.932;2024-02-26T14:17:01;15.60;90.30
7174;DHT22;3628;48.654;8.932;2024-02-26T14:19:28;15.50;89.30
7174;DHT22;3628;48.654;8.932;2024-02-26T14:21:54;15.60;90.10
7174;DHT22;3628;48.654;8.932;2024-02-26T14:24:20;15.70;89.10
7174;DHT22;3628;48.654;8.932;2024-02-26T14:26:45;15.50;86.10
7174;DHT22;3628;48.654;8.932;2024-02-26T14:29:11;15.30;86.10
7174;DHT22;3628;48.654;8.932;2024-02-26T14:31:37;15.00;86.20
7174;DHT22;3628;48.654;8.932;2024-02-26T14:34:02;14.80;88.50
7174;DHT22;3628;48.654;8.932;2024-02-26T14:36:28;14.80;87.70
7174;DHT22;3628;48.654;8.932;2024-02-26T14:38:54;14.90;90.10
7174;DHT22;3628;48.654;8.932;2024-02-26T14:41:20;14.90;90.70
7174;DHT22;3628;48.654;8.932;2024-02-26T14:43:45;14.90;90.70
7174;DHT22;3628;48.654;8.932;2024-02-26T14:46:11;14.60;87.90
7174;DHT22;3628;48.654;8.932;2024-02-26T14:48:38;14.30;85.40
7174;DHT22;3628;48.654;8.932;2024-02-26T14:51:04;14.10;86.70
7174;DHT22;3628;48.654;8.932;2024-02-26T14:53:31;14.00;87.70
7174;DHT22;3628;48.654;8.932;2024-02-26T14:55:57;14.10;89.80
7174;DHT22;3628;48.654;8.932;2024-02-26T14:58:23;14.00;89.10
7174;DHT22;3628;48.654;8.932;2024-02-26T15:00:48;13.90;88.70
7174;DHT22;3628;48.654;8.932;2024-02-26T15:03:15;13.90;89.30
7174;DHT22;3628;48.654;8.932;2024-02-26T15:05:40;13.90;89.80
7174;DHT22;3628;48.654;8.932;2024-02-26T15:08:06;13.90;89.20
7174;DHT22;3628;48.654;8.932;2024-02-26T15:10:34;13.70;87.90
7174;DHT22;3628;48.654;8.932;2024-02-26T15:13:00;13.70;88.10
7174;DHT22;3628;48.654;8.932;2024-02-26T15:15:25;13.60;89.20
7174;DHT22;3628;48.654;8.932;2024-02-26T15:17:51;13.50;89.00
7174;DHT22;3628;48.654;8.932;2024-02-26T15:20:17;13.50;90.10
7174;DHT22;3628;48.654;8.932;2024-02-26T15:22:43;13.50;90.30
7174;DHT22;3628;48.654;8.932;2024-02-26T15:25:08;13.60;90.80
7174;DHT22;3628;48.654;8.932;2024-02-26T15:27:34;13.60;90.80
7174;DHT22;3628;48.654;8.932;2024-02-26T15:30:01;13.60;90.20
7174;DHT22;3628;48.654;8.932;2024-02-26T15:32:27;13.60;89.60
7174;DHT22;3628;48.654;8.932;2024-02-26T15:34:55;13.50;90.50
7174;DHT22;3628;48.654;8.932;2024-02-26T15:37:21;13.40;90.90
7174;DHT22;3628;48.654;8.932;2024-02-26T15:39:47;13.30;89.80
7174;DHT22;3628;48.654;8.932;2024-02-26T15:42:13;13.20;90.20
7174;DHT22;3628;48.654;8.932;2024-02-26T15:44:39;13.10;90.10
7174;DHT22;3628;48.654;8.932;2024-02-26T15:47:05;13.00;91.00
7174;DHT22;3628;48.654;8.932;2024-02-26T15:49:31;12.90;91.70
7174;DHT22;3628;48.654;8.932;2024-02-26T15:51:57;12.80;91.20
7174;DHT22;3628;48.654;8.932;2024-02-26T15:54:23;12.70;90.90
7174;DHT22;3628;48.654;8.932;2024-02-26T15:56:49;12.70;91.20
7174;DHT22;3628;48.654;8.932;2024-02-26T15:59:14;12.70;91.30
7174;DHT22;3628;48.654;8.932;2024-02-26T16:01:40;12.50;90.20
7174;DHT22;3628;48.654;8.932;2024-02-26T16:04:05;12.50;90.50
7174;DHT22;3628;48.654;8.932;2024-02-26T16:06:37;12.50;90.80
7174;DHT22;3628;48.654;8.932;2024-02-26T16:09:04;12.50;91.00
7174;DHT22;3628;48.654;8.932;2024-02-26T16:11:30;12.40;91.40
7174;DHT22;3628;48.654;8.932;2024-02-26T16:14:04;12.40;91.90